createdAt,value
2024-05-09T00:00:39.839Z,6.43
2024-05-09T00:03:09.286Z,5.97
2024-05-09T00:05:37.647Z,6.72
2024-05-09T00:08:05.071Z,6.03
2024-05-09T00:10:36.681Z,6.50
2024-05-09T00:13:06.517Z,6.05
2024-05-09T00:15:34.164Z,6.60
2024-05-09T00:18:01.933Z,7.07
2024-05-09T00:20:37.083Z,7.03
2024-05-09T00:23:11.984Z,6.55
2024-05-09T00:25:40.274Z,7.40
2024-05-09T00:28:07.121Z,7.18
2024-05-09T00:30:36.347Z,7.43
2024-05-09T00:33:06.340Z,7.57
2024-05-09T00:35:34.673Z,7.57
2024-05-09T00:38:01.648Z,7.22
2024-05-09T00:40:39.156Z,7.68
2024-05-09T00:43:08.427Z,8.50
2024-05-09T00:45:35.826Z,8.95
2024-05-09T00:48:06.719Z,8.45
2024-05-09T00:50:37.501Z,8.82
2024-05-09T00:53:11.777Z,9.98
2024-05-09T00:55:40.145Z,9.55
2024-05-09T00:58:10.222Z,10.65
2024-05-09T01:00:40.049Z,10.30
2024-05-09T01:03:10.818Z,10.48
2024-05-09T01:08:07.803Z,10.68
2024-05-09T01:10:36.104Z,11.80
2024-05-09T01:13:04.460Z,12.40
2024-05-09T01:15:31.541Z,12.85
2024-05-09T01:18:00.647Z,12.65
2024-05-09T01:20:37.236Z,12.05
2024-05-09T01:23:10.002Z,13.48
2024-05-09T01:25:37.294Z,13.60
2024-05-09T01:28:04.454Z,14.35
2024-05-09T01:30:35.528Z,13.60
2024-05-09T01:33:09.697Z,13.25
2024-05-09T01:35:38.820Z,15.15
2024-05-09T01:38:06.481Z,16.13
2024-05-09T01:40:38.279Z,16.17
2024-05-09T01:43:11.134Z,15.68
2024-05-09T01:45:39.535Z,16.55
2024-05-09T01:48:07.115Z,17.25
2024-05-09T01:50:39.398Z,17.40
2024-05-09T01:53:14.498Z,17.52
2024-05-09T01:55:42.848Z,18.58
2024-05-09T01:58:10.046Z,17.75
2024-05-09T02:00:41.151Z,17.52
2024-05-09T02:03:13.577Z,18.05
2024-05-09T02:05:43.592Z,18.55
2024-05-09T02:08:21.984Z,18.88
2024-05-09T02:10:49.957Z,18.65
2024-05-09T02:13:17.297Z,20.30
2024-05-09T02:15:44.523Z,19.65
2024-05-09T02:18:11.992Z,19.92
2024-05-09T02:20:40.887Z,20.55
2024-05-09T02:23:09.282Z,20.48
2024-05-09T02:25:36.261Z,19.65
2024-05-09T02:28:03.201Z,20.33
2024-05-09T02:30:38.648Z,20.77
2024-05-09T02:33:13.464Z,20.23
2024-05-09T02:35:42.784Z,20.95
2024-05-09T02:38:10.599Z,21.08
2024-05-09T02:40:39.271Z,20.77
2024-05-09T02:43:08.867Z,21.52
2024-05-09T02:45:36.989Z,22.08
2024-05-09T02:48:04.153Z,21.63
2024-05-09T02:50:37.820Z,21.48
2024-05-09T02:53:10.804Z,22.33
2024-05-09T02:55:38.684Z,23.27
2024-05-09T02:58:08.848Z,20.42
2024-05-09T03:00:39.935Z,22.15
2024-05-09T03:03:10.609Z,21.73
2024-05-09T03:05:39.780Z,21.45
2024-05-09T03:08:07.154Z,21.23
2024-05-09T03:10:36.752Z,22.52
2024-05-09T03:13:10.043Z,22.45
2024-05-09T03:15:37.039Z,22.48
2024-05-09T03:18:05.557Z,24.55
2024-05-09T03:20:35.083Z,20.70
2024-05-09T03:23:04.139Z,22.05
2024-05-09T03:25:31.191Z,21.38
2024-05-09T03:27:58.294Z,22.10
2024-05-09T03:30:36.711Z,21.52
2024-05-09T03:33:17.944Z,20.85
2024-05-09T03:35:46.955Z,21.63
2024-05-09T03:38:14.247Z,21.85
2024-05-09T03:40:45.451Z,21.63
2024-05-09T03:43:13.291Z,19.40
2024-05-09T03:45:40.140Z,21.13
2024-05-09T03:48:07.713Z,21.85
2024-05-09T03:50:36.199Z,22.23
2024-05-09T03:53:04.228Z,20.65
2024-05-09T03:55:31.251Z,21.58
2024-05-09T03:57:58.307Z,21.88
2024-05-09T04:00:31.681Z,21.42
2024-05-09T04:03:06.420Z,21.77
2024-05-09T04:05:35.209Z,20.35
2024-05-09T04:08:02.474Z,21.05
2024-05-09T04:10:33.563Z,20.67
2024-05-09T04:13:02.387Z,21.10
2024-05-09T04:15:29.535Z,20.95
2024-05-09T04:17:56.643Z,20.23
2024-05-09T04:20:33.445Z,19.92
2024-05-09T04:23:06.837Z,20.52
2024-05-09T04:25:34.427Z,19.60
2024-05-09T04:28:01.215Z,21.17
2024-05-09T04:30:36.491Z,20.10
2024-05-09T04:33:08.656Z,20.83
2024-05-09T04:35:37.874Z,19.52
2024-05-09T04:38:05.436Z,19.88
2024-05-09T04:40:35.585Z,21.30
2024-05-09T04:43:13.477Z,20.42
2024-05-09T04:45:40.926Z,19.42
2024-05-09T04:48:08.241Z,20.40
2024-05-09T04:50:38.344Z,21.17
2024-05-09T04:53:09.005Z,19.15
2024-05-09T04:55:37.252Z,21.25
2024-05-09T04:58:05.554Z,21.20
2024-05-09T05:00:37.136Z,20.65
2024-05-09T05:03:10.106Z,19.67
2024-05-09T05:05:43.555Z,19.60
2024-05-09T05:08:13.100Z,20.40
2024-05-09T05:10:40.502Z,20.60
2024-05-09T05:13:17.956Z,20.98
2024-05-09T05:15:46.708Z,19.27
2024-05-09T05:18:15.158Z,18.95
2024-05-09T05:20:42.551Z,20.40
2024-05-09T05:23:14.150Z,20.10
2024-05-09T05:25:41.997Z,20.65
2024-05-09T05:28:09.016Z,18.52
2024-05-09T05:30:37.677Z,19.02
2024-05-09T05:33:06.127Z,19.70
2024-05-09T05:35:34.287Z,20.50
2024-05-09T05:38:01.313Z,20.33
2024-05-09T05:40:35.661Z,21.65
2024-05-09T05:43:09.124Z,20.02
2024-05-09T05:45:36.436Z,20.38
2024-05-09T05:48:05.543Z,21.15
2024-05-09T05:50:36.426Z,19.73
2024-05-09T05:53:09.580Z,21.40
2024-05-09T05:55:39.426Z,19.98
2024-05-09T05:58:09.799Z,19.08
2024-05-09T06:00:39.264Z,20.38
2024-05-09T06:03:08.862Z,20.45
2024-05-09T06:05:37.347Z,20.33
2024-05-09T06:08:04.809Z,20.10
2024-05-09T06:10:38.054Z,20.67
2024-05-09T06:13:07.868Z,19.25
2024-05-09T06:15:35.016Z,18.95
2024-05-09T06:18:04.627Z,19.65
2024-05-09T06:20:35.964Z,17.65
2024-05-09T06:23:09.627Z,18.55
2024-05-09T06:25:38.010Z,19.33
2024-05-09T06:28:05.210Z,19.30
2024-05-09T06:30:38.861Z,19.10
2024-05-09T06:33:09.353Z,19.05
2024-05-09T06:35:37.381Z,19.50
2024-05-09T06:38:04.702Z,19.20
2024-05-09T06:40:37.769Z,18.77
2024-05-09T06:43:18.020Z,18.13
2024-05-09T06:45:52.482Z,19.33
2024-05-09T06:48:20.644Z,19.40
2024-05-09T06:50:48.311Z,18.98
2024-05-09T06:53:16.364Z,18.90
2024-05-09T06:55:43.253Z,18.60
2024-05-09T06:58:10.216Z,19.15
2024-05-09T07:00:40.903Z,18.92
2024-05-09T07:03:11.134Z,19.60
2024-05-09T07:05:38.986Z,19.52
2024-05-09T07:08:06.837Z,19.52
2024-05-09T07:10:35.958Z,18.33
2024-05-09T07:13:07.702Z,17.35
2024-05-09T07:15:34.594Z,18.65
2024-05-09T07:18:01.475Z,18.88
2024-05-09T07:20:34.328Z,18.85
2024-05-09T07:23:05.187Z,18.15
2024-05-09T07:25:32.090Z,17.75
2024-05-09T07:27:59.045Z,16.40
2024-05-09T07:30:32.872Z,17.95
2024-05-09T07:33:02.299Z,17.15
2024-05-09T07:35:30.409Z,16.88
2024-05-09T07:37:57.489Z,16.67
2024-05-09T07:40:32.744Z,17.05
2024-05-09T07:43:04.453Z,17.55
2024-05-09T07:45:48.036Z,16.48
2024-05-09T07:52:37.249Z,15.85
2024-05-09T07:53:49.642Z,15.50
2024-05-09T07:56:21.723Z,16.10
2024-05-09T07:58:51.528Z,11.82
2024-05-09T08:01:18.794Z,13.70
2024-05-09T08:03:45.969Z,15.13
2024-05-09T08:06:12.952Z,15.10
2024-05-09T08:08:39.723Z,14.75
2024-05-09T08:11:06.706Z,14.85
2024-05-09T08:13:33.666Z,15.68
2024-05-09T08:16:00.823Z,15.63
2024-05-09T08:18:28.262Z,15.07
2024-05-09T08:20:55.332Z,14.50
2024-05-09T08:23:23.731Z,13.70
2024-05-09T08:25:53.014Z,14.50
2024-05-09T08:28:20.486Z,12.60
2024-05-09T08:30:47.551Z,12.13
2024-05-09T08:33:14.685Z,13.10
2024-05-09T08:35:41.772Z,11.20
2024-05-09T08:38:09.367Z,11.13
2024-05-09T08:40:37.917Z,12.40
2024-05-09T08:43:11.208Z,10.98
2024-05-09T08:45:43.144Z,10.18
2024-05-09T08:48:12.793Z,10.70
2024-05-09T08:50:43.200Z,9.25
2024-05-09T08:53:10.323Z,6.37
2024-05-09T08:55:41.529Z,10.13
2024-05-09T08:58:14.345Z,8.35
2024-05-09T09:00:43.981Z,9.20
2024-05-09T09:03:15.692Z,9.55
2024-05-09T09:05:51.445Z,9.23
2024-05-09T09:08:18.769Z,9.88
2024-05-09T09:10:47.657Z,9.90
2024-05-09T09:13:14.848Z,7.80
2024-05-09T09:15:48.140Z,7.70
2024-05-09T09:18:16.289Z,7.18
2024-05-09T09:20:44.291Z,7.38
2024-05-09T09:23:11.158Z,7.07
2024-05-09T09:25:41.497Z,7.32
2024-05-09T09:28:08.599Z,7.07
2024-05-09T09:30:42.252Z,6.97
2024-05-09T09:33:10.479Z,6.13
2024-05-09T09:35:39.753Z,6.90
2024-05-09T09:38:07.648Z,5.45
2024-05-09T09:40:40.894Z,4.90
2024-05-09T09:43:22.078Z,4.72
2024-05-09T09:45:52.435Z,4.38
2024-05-09T09:48:21.953Z,2.20
2024-05-09T09:50:51.734Z,2.25
2024-05-09T09:53:19.535Z,2.20
2024-05-09T09:55:47.037Z,2.97
2024-05-09T09:58:17.676Z,2.00
2024-05-09T10:03:12.154Z,3.10
2024-05-09T10:05:42.074Z,2.38
2024-05-09T10:08:12.993Z,2.20
2024-05-09T10:10:40.194Z,2.53
2024-05-09T10:13:08.501Z,1.63
2024-05-09T10:15:51.048Z,1.60
2024-05-09T10:18:27.138Z,1.90
2024-05-09T10:20:56.241Z,2.08
2024-05-09T10:23:27.677Z,1.70
2024-05-09T10:26:03.519Z,1.63
2024-05-09T10:28:36.842Z,1.40
2024-05-09T10:31:07.700Z,1.55
2024-05-09T10:33:46.729Z,1.42
2024-05-09T10:36:21.213Z,1.52
2024-05-09T10:38:52.402Z,1.55
2024-05-09T10:41:20.468Z,1.40
2024-05-09T10:43:47.823Z,1.50
2024-05-09T10:46:15.540Z,1.33
2024-05-09T10:48:44.310Z,1.42
2024-05-09T10:51:11.961Z,1.30
2024-05-09T10:53:42.915Z,1.50
2024-05-09T10:56:10.566Z,1.20
2024-05-09T10:58:37.353Z,2.70
2024-05-09T11:01:06.961Z,1.58
2024-05-09T11:03:35.898Z,1.20
2024-05-09T11:06:03.157Z,1.27
2024-05-09T11:08:31.838Z,1.30
2024-05-09T11:10:59.775Z,1.50
2024-05-09T11:13:31.237Z,1.38
2024-05-09T11:15:59.964Z,1.50
2024-05-09T11:18:31.722Z,1.50
2024-05-09T11:21:01.889Z,1.45
2024-05-09T11:23:32.007Z,1.10
2024-05-09T11:25:59.103Z,1.33
2024-05-09T11:31:05.453Z,1.30
2024-05-09T11:33:32.372Z,1.42
2024-05-09T11:35:59.197Z,1.80
2024-05-09T11:38:25.968Z,1.33
2024-05-09T11:40:52.758Z,1.92
2024-05-09T11:43:19.705Z,1.50
2024-05-09T11:45:46.573Z,1.48
2024-05-09T11:48:13.533Z,1.60
2024-05-09T11:50:40.533Z,1.80
2024-05-09T11:53:07.378Z,1.67
2024-05-09T11:55:36.923Z,1.70
2024-05-09T11:58:04.731Z,1.70
2024-05-09T12:00:36.800Z,1.70
2024-05-09T12:03:05.861Z,1.80
2024-05-09T12:05:34.109Z,2.00
2024-05-09T12:08:01.625Z,1.67
2024-05-09T12:10:33.484Z,1.80
2024-05-09T12:13:04.396Z,1.42
2024-05-09T12:15:32.775Z,1.23
2024-05-09T12:18:02.460Z,1.30
2024-05-09T12:20:36.620Z,1.85
2024-05-09T12:23:06.636Z,1.40
2024-05-09T12:25:33.665Z,1.55
2024-05-09T12:28:00.880Z,1.60
2024-05-09T12:30:36.216Z,1.50
2024-05-09T12:33:08.171Z,1.20
2024-05-09T12:35:35.384Z,1.65
2024-05-09T12:38:02.762Z,1.33
2024-05-09T12:40:36.399Z,1.45
2024-05-09T12:43:09.088Z,0.90
2024-05-09T12:45:37.429Z,1.10
2024-05-09T12:48:07.434Z,1.17
2024-05-09T12:50:34.979Z,1.17
2024-05-09T12:53:03.814Z,1.40
2024-05-09T12:55:37.740Z,1.10
2024-05-09T12:58:12.335Z,1.38
2024-05-09T13:00:39.286Z,1.65
2024-05-09T13:03:07.621Z,1.30
2024-05-09T13:05:34.695Z,1.00
2024-05-09T13:08:02.021Z,1.42
2024-05-09T13:10:32.510Z,1.30
2024-05-09T13:13:01.633Z,1.40
2024-05-09T13:15:31.017Z,1.25
2024-05-09T13:18:01.633Z,1.48
2024-05-09T13:20:33.646Z,1.30
2024-05-09T13:23:07.053Z,1.30
2024-05-09T13:25:35.191Z,1.45
2024-05-09T13:28:06.354Z,1.20
2024-05-09T13:30:39.616Z,1.30
2024-05-09T13:33:12.548Z,1.20
2024-05-09T13:35:46.692Z,1.33
2024-05-09T13:38:17.071Z,1.15
2024-05-09T13:40:43.992Z,1.40
2024-05-09T13:43:10.989Z,1.70
2024-05-09T13:45:37.802Z,1.70
2024-05-09T13:48:06.755Z,1.40
2024-05-09T13:50:36.267Z,1.60
2024-05-09T13:53:08.411Z,1.70
2024-05-09T13:55:39.493Z,1.67
2024-05-09T13:58:07.257Z,1.10
2024-05-09T14:00:44.184Z,1.70
2024-05-09T14:05:43.294Z,1.25
2024-05-09T14:08:10.366Z,1.45
2024-05-09T14:10:43.533Z,1.30
2024-05-09T14:13:11.221Z,1.33
2024-05-09T14:15:38.188Z,1.10
2024-05-09T14:18:05.987Z,1.50
2024-05-09T14:20:33.471Z,1.10
2024-05-09T14:23:00.936Z,1.08
2024-05-09T14:25:36.572Z,1.33
2024-05-09T14:28:06.682Z,1.10
2024-05-09T14:30:37.349Z,1.20
2024-05-09T14:33:06.777Z,1.10
2024-05-09T14:35:34.552Z,1.20
2024-05-09T14:38:01.540Z,1.10
2024-05-09T14:40:38.832Z,1.02
2024-05-09T14:43:11.294Z,1.23
2024-05-09T14:45:38.533Z,1.00
2024-05-09T14:48:06.556Z,1.15
2024-05-09T14:50:37.397Z,1.20
2024-05-09T14:53:10.728Z,1.30
2024-05-09T14:55:39.958Z,1.80
2024-05-09T14:58:08.899Z,1.63
2024-05-09T15:00:41.293Z,1.30
2024-05-09T15:03:11.400Z,1.38
2024-05-09T15:05:38.477Z,1.20
2024-05-09T15:08:07.179Z,0.80
2024-05-09T15:10:36.260Z,1.00
2024-05-09T15:13:04.589Z,1.20
2024-05-09T15:15:31.687Z,1.00
2024-05-09T15:17:59.058Z,1.17
2024-05-09T15:20:33.141Z,1.30
2024-05-09T15:23:03.138Z,1.20
2024-05-09T15:25:30.251Z,1.20
2024-05-09T15:27:57.388Z,1.95
2024-05-09T15:30:30.728Z,1.50
2024-05-09T15:33:01.165Z,1.40
2024-05-09T15:35:28.423Z,1.20
2024-05-09T15:37:55.602Z,1.08
2024-05-09T15:40:31.465Z,1.40
2024-05-09T15:43:05.825Z,1.42
2024-05-09T15:45:32.944Z,1.52
2024-05-09T15:48:00.382Z,1.33
2024-05-09T15:50:36.224Z,1.15
2024-05-09T15:53:07.724Z,1.80
2024-05-09T15:55:35.577Z,1.30
2024-05-09T15:58:04.051Z,1.33
2024-05-09T16:03:01.348Z,1.20
2024-05-09T16:05:28.361Z,1.25
2024-05-09T16:07:55.417Z,1.35
2024-05-09T16:10:26.026Z,1.25
2024-05-09T16:12:59.048Z,1.05
2024-05-09T16:15:26.054Z,1.20
2024-05-09T16:17:53.100Z,1.02
2024-05-09T16:20:33.202Z,1.00
2024-05-09T16:23:05.438Z,0.90
2024-05-09T16:25:32.179Z,1.02
2024-05-09T16:27:59.092Z,1.10
2024-05-09T16:30:32.145Z,1.10
2024-05-09T16:33:03.215Z,1.10
2024-05-09T16:35:30.471Z,1.20
2024-05-09T16:37:57.468Z,0.90
2024-05-09T16:40:34.317Z,1.23
2024-05-09T16:43:06.270Z,1.10
2024-05-09T16:45:33.593Z,0.90
2024-05-09T16:48:02.092Z,0.80
2024-05-09T16:50:33.411Z,0.90
2024-05-09T16:53:03.103Z,1.10
2024-05-09T16:55:30.137Z,1.30
2024-05-09T16:57:57.476Z,1.50
2024-05-09T17:00:35.271Z,1.77
2024-05-09T17:03:08.687Z,1.30
2024-05-09T17:05:36.436Z,1.30
2024-05-09T17:08:03.928Z,1.70
2024-05-09T17:10:33.780Z,1.38
2024-05-09T17:13:03.286Z,1.30
2024-05-09T17:15:31.792Z,1.45
2024-05-09T17:17:58.977Z,1.27
2024-05-09T17:20:32.358Z,1.40
2024-05-09T17:23:03.852Z,1.45
2024-05-09T17:25:30.793Z,1.33
2024-05-09T17:27:59.639Z,1.30
2024-05-09T17:30:32.447Z,1.50
2024-05-09T17:33:08.311Z,1.58
2024-05-09T17:35:36.570Z,1.60
2024-05-09T17:38:05.061Z,1.70
2024-05-09T17:40:35.769Z,1.40
2024-05-09T17:43:05.590Z,1.60
2024-05-09T17:45:33.387Z,1.80
2024-05-09T17:48:01.038Z,1.73
2024-05-09T17:50:35.048Z,9.05
2024-05-09T17:53:08.376Z,9.35
2024-05-09T17:55:36.147Z,3.35
2024-05-09T17:58:04.129Z,24.10
2024-05-09T18:00:37.968Z,6.60
2024-05-09T18:03:08.973Z,1.50
2024-05-09T18:05:37.066Z,1.40
2024-05-09T18:08:06.359Z,1.60
2024-05-09T18:10:37.389Z,1.50
2024-05-09T18:13:08.478Z,1.30
2024-05-09T18:15:35.967Z,1.50
2024-05-09T18:18:03.798Z,1.60
2024-05-09T18:20:40.514Z,1.52
2024-05-09T18:23:13.097Z,1.30
2024-05-09T18:25:39.954Z,1.10
2024-05-09T18:28:07.317Z,1.50
2024-05-09T18:30:36.301Z,1.27
2024-05-09T18:33:06.469Z,1.30
2024-05-09T18:35:34.768Z,1.67
2024-05-09T18:38:01.590Z,1.30
2024-05-09T18:40:34.139Z,1.50
2024-05-09T18:43:05.347Z,1.52
2024-05-09T18:45:33.571Z,1.70
2024-05-09T18:48:00.892Z,1.65
2024-05-09T18:50:35.295Z,1.40
2024-05-09T18:53:06.102Z,1.67
2024-05-09T18:55:33.183Z,1.30
2024-05-09T18:58:00.497Z,1.58
2024-05-09T19:00:34.459Z,1.40
2024-05-09T19:03:06.385Z,2.00
2024-05-09T19:05:36.080Z,1.63
2024-05-09T19:08:03.555Z,1.50
2024-05-09T19:10:34.390Z,1.52
2024-05-09T19:13:06.798Z,1.83
2024-05-09T19:15:38.009Z,2.00
2024-05-09T19:18:05.415Z,1.90
2024-05-09T19:20:34.947Z,1.58
2024-05-09T19:23:03.530Z,1.60
2024-05-09T19:25:30.917Z,1.50
2024-05-09T19:27:58.211Z,1.60
2024-05-09T19:30:34.980Z,1.83
2024-05-09T19:33:07.090Z,2.30
2024-05-09T19:35:34.010Z,1.70
2024-05-09T19:38:01.084Z,2.15
2024-05-09T19:40:32.022Z,2.00
2024-05-09T19:43:02.362Z,1.70
2024-05-09T19:45:30.104Z,1.80
2024-05-09T19:47:57.191Z,1.65
2024-05-09T19:50:32.359Z,1.90
2024-05-09T19:53:07.229Z,2.30
2024-05-09T19:55:34.629Z,2.38
2024-05-09T19:58:05.676Z,2.28
2024-05-09T20:00:40.236Z,2.65
2024-05-09T20:03:10.244Z,2.90
2024-05-09T20:05:38.071Z,2.35
2024-05-09T20:08:06.085Z,2.63
2024-05-09T20:10:35.236Z,3.35
2024-05-09T20:13:04.602Z,4.13
2024-05-09T20:15:33.570Z,4.95
2024-05-09T20:18:00.558Z,5.53
2024-05-09T20:20:35.504Z,6.07
2024-05-09T20:23:06.415Z,7.00
2024-05-09T20:25:33.299Z,7.38
2024-05-09T20:28:00.420Z,7.25
2024-05-09T20:30:32.182Z,6.85
2024-05-09T20:33:02.848Z,7.75
2024-05-09T20:35:32.453Z,8.48
2024-05-09T20:38:00.954Z,8.73
2024-05-09T20:40:32.730Z,8.23
2024-05-09T20:43:03.230Z,8.93
2024-05-09T20:45:30.124Z,9.07
2024-05-09T20:47:57.528Z,8.50
2024-05-09T20:50:35.368Z,9.23
2024-05-09T20:53:14.611Z,9.85
2024-05-09T20:55:43.863Z,10.05
2024-05-09T20:58:11.856Z,12.23
2024-05-09T21:00:42.756Z,10.98
2024-05-09T21:03:13.227Z,11.20
2024-05-09T21:05:41.170Z,11.55
2024-05-09T21:08:08.330Z,11.73
2024-05-09T21:10:36.387Z,11.13
2024-05-09T21:13:04.470Z,11.60
2024-05-09T21:15:32.079Z,12.32
2024-05-09T21:17:59.416Z,12.25
2024-05-09T21:20:31.710Z,12.27
2024-05-09T21:23:00.646Z,13.85
2024-05-09T21:25:27.597Z,11.70
2024-05-09T21:27:54.607Z,12.32
2024-05-09T21:30:32.077Z,12.43
2024-05-09T21:33:09.914Z,11.68
2024-05-09T21:35:38.254Z,12.80
2024-05-09T21:38:05.747Z,13.43
2024-05-09T21:40:35.284Z,12.73
2024-05-09T21:43:04.345Z,14.13
2024-05-09T21:45:31.634Z,13.85
2024-05-09T21:47:58.674Z,13.55
2024-05-09T21:50:32.478Z,14.38
2024-05-09T21:53:06.539Z,13.43
2024-05-09T21:55:33.578Z,13.40
2024-05-09T21:58:00.743Z,14.80
2024-05-09T22:00:34.803Z,14.30
2024-05-09T22:03:05.348Z,13.93
2024-05-09T22:05:32.845Z,14.93
2024-05-09T22:07:59.996Z,14.27
2024-05-09T22:10:33.232Z,14.70
2024-05-09T22:13:02.463Z,13.93
2024-05-09T22:15:29.472Z,14.20
2024-05-09T22:17:57.439Z,14.38
2024-05-09T22:20:32.739Z,14.60
2024-05-09T22:23:04.063Z,15.52
2024-05-09T22:25:32.092Z,15.15
2024-05-09T22:28:00.667Z,15.23
2024-05-09T22:30:34.986Z,14.63
2024-05-09T22:33:09.173Z,13.25
2024-05-09T22:35:40.958Z,13.68
2024-05-09T22:38:08.329Z,12.93
2024-05-09T22:40:46.202Z,13.65
2024-05-09T22:43:21.021Z,13.02
2024-05-09T22:45:49.804Z,11.40
2024-05-09T22:48:16.966Z,12.52
2024-05-09T22:50:44.611Z,12.45
2024-05-09T22:53:11.336Z,11.68
2024-05-09T22:55:38.058Z,11.85
2024-05-09T22:58:05.044Z,12.43
2024-05-09T23:00:33.196Z,11.80
2024-05-09T23:03:01.369Z,12.23
2024-05-09T23:05:28.843Z,11.88
2024-05-09T23:07:55.829Z,12.93
2024-05-09T23:10:30.912Z,12.00
2024-05-09T23:13:02.280Z,12.40
2024-05-09T23:15:29.136Z,11.90
2024-05-09T23:17:56.217Z,12.02
2024-05-09T23:20:33.291Z,12.60
2024-05-09T23:23:05.752Z,13.07
2024-05-09T23:25:32.631Z,12.75
2024-05-09T23:27:59.619Z,12.63
2024-05-09T23:30:36.133Z,13.95
2024-05-09T23:33:07.168Z,12.52
2024-05-09T23:35:34.026Z,13.63
2024-05-09T23:38:00.921Z,12.00
2024-05-09T23:40:37.465Z,13.27
2024-05-09T23:43:08.235Z,12.70
2024-05-09T23:45:35.357Z,12.57
2024-05-09T23:48:02.814Z,13.15
2024-05-09T23:50:35.539Z,12.73
2024-05-09T23:53:05.719Z,14.52
2024-05-09T23:55:32.931Z,13.13
2024-05-09T23:58:00.444Z,14.27
